sensor_id;sensor_type;location;lat;lon;timestamp;temperature;humidity
17007;DHT22;8620;51.168;4.154;2023-06-22T07:01:22;23.00;99.90
17007;DHT22;8620;51.168;4.154;2023-06-22T07:03:51;23.40;99.90
17007;DHT22;8620;51.168;4.154;2023-06-22T07:06:22;23.90;99.90
17007;DHT22;8620;51.168;4.154;2023-06-22T07:08:50;23.20;99.90
17007;DHT22;8620;51.168;4.154;2023-06-22T07:11:19;23.00;99.90
17007;DHT22;8620;51.168;4.154;2023-06-22T07:13:47;22.90;99.90
17007;DHT22;8620;51.168;4.154;2023-06-22T07:16:20;23.00;99.90
17007;DHT22;8620;51.168;4.154;2023-06-22T07:18:50;23.30;99.90
17007;DHT22;8620;51.168;4.154;2023-06-22T07:21:16;23.40;99.90
17007;DHT22;8620;51.168;4.154;2023-06-22T07:23:42;23.40;99.90
17007;DHT22;8620;51.168;4.154;2023-06-22T07:26:13;23.30;99.90
17007;DHT22;8620;51.168;4.154;2023-06-22T07:28:45;23.40;99.90
17007;DHT22;8620;51.168;4.154;2023-06-22T07:31:16;23.60;99.90
17007;DHT22;8620;51.168;4.154;2023-06-22T07:33:44;23.60;99.90
17007;DHT22;8620;51.168;4.154;2023-06-22T07:36:10;23.30;99.90
17007;DHT22;8620;51.168;4.154;2023-06-22T07:38:41;22.90;99.90
17007;DHT22;8620;51.168;4.154;2023-06-22T07:41:12;22.90;99.90
17007;DHT22;8620;51.168;4.154;2023-06-22T07:43:45;22.90;99.90
17007;DHT22;8620;51.168;4.154;2023-06-22T07:46:13;22.90;99.90
17007;DHT22;8620;51.168;4.154;2023-06-22T07:48:39;23.00;99.90
17007;DHT22;8620;51.168;4.154;2023-06-22T07:51:10;23.00;99.90
17007;DHT22;8620;51.168;4.154;2023-06-22T07:53:43;22.90;99.90
17007;DHT22;8620;51.168;4.154;2023-06-22T07:56:15;22.90;99.90
17007;DHT22;8620;51.168;4.154;2023-06-22T07:58:45;23.00;99.90
17007;DHT22;8620;51.168;4.154;2023-06-22T08:01:12;22.80;99.90
17007;DHT22;8620;51.168;4.154;2023-06-22T08:03:39;23.00;99.90
17007;DHT22;8620;51.168;4.154;2023-06-22T08:06:05;23.10;99.90
17007;DHT22;8620;51.168;4.154;2023-06-22T08:08:33;23.40;99.90
17007;DHT22;8620;51.168;4.154;2023-06-22T08:11:04;23.30;99.90
17007;DHT22;8620;51.168;4.154;2023-06-22T08:13:31;23.40;99.90
17007;DHT22;8620;51.168;4.154;2023-06-22T08:16:06;23.30;99.90
17007;DHT22;8620;51.168;4.154;2023-06-22T08:18:38;23.40;99.90
17007;DHT22;8620;51.168;4.154;2023-06-22T08:21:08;23.60;99.90
17007;DHT22;8620;51.168;4.154;2023-06-22T08:23:37;23.40;99.90
17007;DHT22;8620;51.168;4.154;2023-06-22T08:26:05;23.30;99.90
17007;DHT22;8620;51.168;4.154;2023-06-22T08:28:38;23.30;99.90
17007;DHT22;8620;51.168;4.154;2023-06-22T08:31:06;23.40;99.90
17007;DHT22;8620;51.168;4.154;2023-06-22T08:33:39;23.10;99.90
17007;DHT22;8620;51.168;4.154;2023-06-22T08:36:08;23.10;99.90
17007;DHT22;8620;51.168;4.154;2023-06-22T08:38:36;23.20;99.90
17007;DHT22;8620;51.168;4.154;2023-06-22T08:41:02;23.20;99.90
17007;DHT22;8620;51.168;4.154;2023-06-22T08:43:28;23.30;99.90
17007;DHT22;8620;51.168;4.154;2023-06-22T08:45:56;23.30;99.90
17007;DHT22;8620;51.168;4.154;2023-06-22T08:48:22;23.30;99.90
17007;DHT22;8620;51.168;4.154;2023-06-22T08:50:51;23.10;99.90
17007;DHT22;8620;51.168;4.154;2023-06-22T08:53:17;23.20;99.90
17007;DHT22;8620;51.168;4.154;2023-06-22T08:55:50;23.20;99.90
17007;DHT22;8620;51.168;4.154;2023-06-22T08:58:19;22.90;99.90
17007;DHT22;8620;51.168;4.154;2023-06-22T09:00:52;23.00;99.90
17007;DHT22;8620;51.168;4.154;2023-06-22T09:03:24;22.90;99.90
17007;DHT22;8620;51.168;4.154;2023-06-22T09:05:51;23.10;99.90
17007;DHT22;8620;51.168;4.154;2023-06-22T09:08:20;22.90;99.90
17007;DHT22;8620;51.168;4.154;2023-06-22T09:10:48;22.50;99.90
17007;DHT22;8620;51.168;4.154;2023-06-22T09:13:17;22.50;99.90
17007;DHT22;8620;51.168;4.154;2023-06-22T09:15:48;22.40;99.90
17007;DHT22;8620;51.168;4.154;2023-06-22T09:18:14;22.60;99.90
17007;DHT22;8620;51.168;4.154;2023-06-22T09:20:40;22.50;99.90
17007;DHT22;8620;51.168;4.154;2023-06-22T09:23:09;22.50;99.90
17007;DHT22;8620;51.168;4.154;2023-06-22T09:25:35;22.80;99.90
17007;DHT22;8620;51.168;4.154;2023-06-22T09:28:01;23.00;99.90
17007;DHT22;8620;51.168;4.154;2023-06-22T09:30:32;23.00;99.90
17007;DHT22;8620;51.168;4.154;2023-06-22T09:32:58;23.10;99.90
17007;DHT22;8620;51.168;4.154;2023-06-22T09:35:25;23.60;99.90
17007;DHT22;8620;51.168;4.154;2023-06-22T09:37:53;23.70;99.90
17007;DHT22;8620;51.168;4.154;2023-06-22T09:40:19;24.00;99.90
17007;DHT22;8620;51.168;4.154;2023-06-22T09:42:48;24.00;99.90
17007;DHT22;8620;51.168;4.154;2023-06-22T09:45:13;24.30;99.90
17007;DHT22;8620;51.168;4.154;2023-06-22T09:47:39;24.40;99.90
17007;DHT22;8620;51.168;4.154;2023-06-22T09:50:09;24.50;99.90
17007;DHT22;8620;51.168;4.154;2023-06-22T09:52:42;24.10;99.90
17007;DHT22;8620;51.168;4.154;2023-06-22T09:55:12;23.90;99.90
17007;DHT22;8620;51.168;4.154;2023-06-22T09:57:48;24.10;99.90
17007;DHT22;8620;51.168;4.154;2023-06-22T10:00:19;24.00;99.90
17007;DHT22;8620;51.168;4.154;2023-06-22T10:02:47;23.90;99.90
17007;DHT22;8620;51.168;4.154;2023-06-22T10:05:18;23.80;99.90
17007;DHT22;8620;51.168;4.154;2023-06-22T10:07:47;23.60;99.90
17007;DHT22;8620;51.168;4.154;2023-06-22T10:10:13;23.70;99.90
17007;DHT22;8620;51.168;4.154;2023-06-22T10:12:46;23.80;99.90
17007;DHT22;8620;51.168;4.154;2023-06-22T10:15:19;23.90;99.90
17007;DHT22;8620;51.168;4.154;2023-06-22T10:17:47;23.50;99.90
17007;DHT22;8620;51.168;4.154;2023-06-22T10:20:15;23.10;99.90
17007;DHT22;8620;51.168;4.154;2023-06-22T10:33:25;21.50;99.90
17007;DHT22;8620;51.168;4.154;2023-06-22T10:35:53;21.70;99.90
17007;DHT22;8620;51.168;4.154;2023-06-22T10:38:21;21.90;99.90
17007;DHT22;8620;51.168;4.154;2023-06-22T10:40:50;22.30;99.90
17007;DHT22;8620;51.168;4.154;2023-06-22T10:43:18;22.30;99.90
17007;DHT22;8620;51.168;4.154;2023-06-22T10:45:47;22.50;99.90
17007;DHT22;8620;51.168;4.154;2023-06-22T10:48:16;22.50;99.90
17007;DHT22;8620;51.168;4.154;2023-06-22T10:50:42;22.60;99.90
17007;DHT22;8620;51.168;4.154;2023-06-22T10:53:08;22.80;99.90
17007;DHT22;8620;51.168;4.154;2023-06-22T10:55:36;22.70;99.90
17007;DHT22;8620;51.168;4.154;2023-06-22T10:58:05;22.80;99.90
17007;DHT22;8620;51.168;4.154;2023-06-22T11:00:30;22.60;99.90
17007;DHT22;8620;51.168;4.154;2023-06-22T11:03:03;22.60;99.90
17007;DHT22;8620;51.168;4.154;2023-06-22T11:05:31;22.60;99.90
17007;DHT22;8620;51.168;4.154;2023-06-22T11:08:02;22.40;99.90
17007;DHT22;8620;51.168;4.154;2023-06-22T11:10:33;22.30;99.90
17007;DHT22;8620;51.168;4.154;2023-06-22T11:13:01;22.30;99.90
17007;DHT22;8620;51.168;4.154;2023-06-22T11:15:33;22.30;99.90
17007;DHT22;8620;51.168;4.154;2023-06-22T11:18:02;22.20;99.90
17007;DHT22;8620;51.168;4.154;2023-06-22T11:20:30;22.10;99.90
17007;DHT22;8620;51.168;4.154;2023-06-22T11:22:55;21.60;99.90
17007;DHT22;8620;51.168;4.154;2023-06-22T11:25:26;20.90;99.90
17007;DHT22;8620;51.168;4.154;2023-06-22T11:27:57;20.40;99.90
17007;DHT22;8620;51.168;4.154;2023-06-22T11:30:28;20.30;99.90
17007;DHT22;8620;51.168;4.154;2023-06-22T11:32:56;20.10;99.90
17007;DHT22;8620;51.168;4.154;2023-06-22T11:35:25;20.00;99.90
17007;DHT22;8620;51.168;4.154;2023-06-22T11:37:54;20.20;99.90
17007;DHT22;8620;51.168;4.154;2023-06-22T11:40:24;20.00;99.90
17007;DHT22;8620;51.168;4.154;2023-06-22T11:43:00;20.30;99.90
17007;DHT22;8620;51.168;4.154;2023-06-22T11:45:32;20.80;99.90
17007;DHT22;8620;51.168;4.154;2023-06-22T11:48:05;20.40;99.90
17007;DHT22;8620;51.168;4.154;2023-06-22T11:50:36;20.20;99.90
17007;DHT22;8620;51.168;4.154;2023-06-22T11:53:02;20.20;99.90
17007;DHT22;8620;51.168;4.154;2023-06-22T11:55:36;20.20;99.90
17007;DHT22;8620;51.168;4.154;2023-06-22T11:58:03;20.20;99.90
17007;DHT22;8620;51.168;4.154;2023-06-22T12:00:32;20.10;99.90
17007;DHT22;8620;51.168;4.154;2023-06-22T12:03:02;20.40;99.90
17007;DHT22;8620;51.168;4.154;2023-06-22T12:05:34;20.90;99.90
17007;DHT22;8620;51.168;4.154;2023-06-22T12:08:00;20.40;99.90
17007;DHT22;8620;51.168;4.154;2023-06-22T12:10:26;20.30;99.90
17007;DHT22;8620;51.168;4.154;2023-06-22T12:12:56;20.10;99.90
17007;DHT22;8620;51.168;4.154;2023-06-22T12:15:26;20.30;99.90
17007;DHT22;8620;51.168;4.154;2023-06-22T12:17:53;20.20;99.90
17007;DHT22;8620;51.168;4.154;2023-06-22T12:20:21;20.20;99.90
17007;DHT22;8620;51.168;4.154;2023-06-22T12:22:49;20.50;99.90
17007;DHT22;8620;51.168;4.154;2023-06-22T12:25:21;20.80;99.90
17007;DHT22;8620;51.168;4.154;2023-06-22T12:27:47;21.00;99.90
17007;DHT22;8620;51.168;4.154;2023-06-22T12:30:16;21.40;99.90
17007;DHT22;8620;51.168;4.154;2023-06-22T12:32:45;21.40;99.90
17007;DHT22;8620;51.168;4.154;2023-06-22T12:35:13;21.40;99.90
17007;DHT22;8620;51.168;4.154;2023-06-22T12:37:43;21.40;99.90
17007;DHT22;8620;51.168;4.154;2023-06-22T12:40:13;21.40;99.90
17007;DHT22;8620;51.168;4.154;2023-06-22T12:42:45;21.50;99.90
17007;DHT22;8620;51.168;4.154;2023-06-22T12:45:13;21.70;99.90
17007;DHT22;8620;51.168;4.154;2023-06-22T12:47:41;21.70;99.90
17007;DHT22;8620;51.168;4.154;2023-06-22T12:50:12;21.60;99.90
17007;DHT22;8620;51.168;4.154;2023-06-22T12:52:43;21.70;99.90
17007;DHT22;8620;51.168;4.154;2023-06-22T12:55:14;21.70;99.90
17007;DHT22;8620;51.168;4.154;2023-06-22T12:57:45;22.00;99.90
17007;DHT22;8620;51.168;4.154;2023-06-22T13:00:15;22.10;99.90
17007;DHT22;8620;51.168;4.154;2023-06-22T13:02:46;22.20;99.90
17007;DHT22;8620;51.168;4.154;2023-06-22T13:05:15;21.90;99.90
17007;DHT22;8620;51.168;4.154;2023-06-22T13:07:43;21.80;99.90
17007;DHT22;8620;51.168;4.154;2023-06-22T13:10:12;21.70;99.90
17007;DHT22;8620;51.168;4.154;2023-06-22T13:12:44;21.80;99.90
17007;DHT22;8620;51.168;4.154;2023-06-22T13:15:12;22.00;99.90
17007;DHT22;8620;51.168;4.154;2023-06-22T13:17:47;22.10;99.90
17007;DHT22;8620;51.168;4.154;2023-06-22T13:20:23;22.00;99.90
17007;DHT22;8620;51.168;4.154;2023-06-22T13:22:49;22.10;99.90
17007;DHT22;8620;51.168;4.154;2023-06-22T13:25:21;22.00;99.90
17007;DHT22;8620;51.168;4.154;2023-06-22T13:27:54;21.80;99.90
17007;DHT22;8620;51.168;4.154;2023-06-22T13:30:22;21.80;99.90
17007;DHT22;8620;51.168;4.154;2023-06-22T13:32:51;21.60;99.90
17007;DHT22;8620;51.168;4.154;2023-06-22T13:35:17;21.40;99.90
17007;DHT22;8620;51.168;4.154;2023-06-22T13:37:52;21.30;99.90
17007;DHT22;8620;51.168;4.154;2023-06-22T13:40:26;21.30;99.90
17007;DHT22;8620;51.168;4.154;2023-06-22T13:42:55;21.40;99.90
17007;DHT22;8620;51.168;4.154;2023-06-22T13:45:21;21.40;99.90
17007;DHT22;8620;51.168;4.154;2023-06-22T13:47:52;21.60;99.90
17007;DHT22;8620;51.168;4.154;2023-06-22T13:50:18;21.80;99.90
17007;DHT22;8620;51.168;4.154;2023-06-22T13:52:50;21.60;99.90
17007;DHT22;8620;51.168;4.154;2023-06-22T13:55:18;21.50;99.90
17007;DHT22;8620;51.168;4.154;2023-06-22T13:57:46;21.50;99.90
17007;DHT22;8620;51.168;4.154;2023-06-22T14:00:12;21.50;99.90
17007;DHT22;8620;51.168;4.154;2023-06-22T14:02:41;21.50;99.90
17007;DHT22;8620;51.168;4.154;2023-06-22T14:05:09;21.40;99.90
17007;DHT22;8620;51.168;4.154;2023-06-22T14:07:45;21.20;99.90
17007;DHT22;8620;51.168;4.154;2023-06-22T14:10:13;21.10;99.90
17007;DHT22;8620;51.168;4.154;2023-06-22T14:12:39;21.00;99.90
17007;DHT22;8620;51.168;4.154;2023-06-22T14:15:09;20.90;99.90
17007;DHT22;8620;51.168;4.154;2023-06-22T14:17:35;21.00;99.90
17007;DHT22;8620;51.168;4.154;2023-06-22T14:20:07;21.20;99.90
17007;DHT22;8620;51.168;4.154;2023-06-22T14:22:36;21.20;99.90
17007;DHT22;8620;51.168;4.154;2023-06-22T14:25:07;21.10;99.90
17007;DHT22;8620;51.168;4.154;2023-06-22T14:27:36;21.10;99.90
17007;DHT22;8620;51.168;4.154;2023-06-22T14:30:08;21.20;99.90
17007;DHT22;8620;51.168;4.154;2023-06-22T14:32:37;21.00;99.90
17007;DHT22;8620;51.168;4.154;2023-06-22T14:35:10;20.90;99.90
17007;DHT22;8620;51.168;4.154;2023-06-22T14:37:36;20.90;99.90
17007;DHT22;8620;51.168;4.154;2023-06-22T14:40:08;21.10;99.90
17007;DHT22;8620;51.168;4.154;2023-06-22T14:42:37;20.80;99.90
17007;DHT22;8620;51.168;4.154;2023-06-22T14:45:06;20.80;99.90
17007;DHT22;8620;51.168;4.154;2023-06-22T14:47:35;20.70;99.90
17007;DHT22;8620;51.168;4.154;2023-06-22T14:50:01;20.80;99.90
17007;DHT22;8620;51.168;4.154;2023-06-22T14:52:26;20.80;99.90
17007;DHT22;8620;51.168;4.154;2023-06-22T14:55:00;21.00;99.90
17007;DHT22;8620;51.168;4.154;2023-06-22T14:57:49;21.00;99.90
17007;DHT22;8620;51.168;4.154;2023-06-22T15:00:14;20.80;99.90
17007;DHT22;8620;51.168;4.154;2023-06-22T15:03:05;21.00;99.90
17007;DHT22;8620;51.168;4.154;2023-06-22T15:05:46;20.90;99.90
17007;DHT22;8620;51.168;4.154;2023-06-22T15:08:11;20.80;99.90
17007;DHT22;8620;51.168;4.154;2023-06-22T15:10:40;20.80;99.90
17007;DHT22;8620;51.168;4.154;2023-06-22T15:13:06;20.80;99.90
17007;DHT22;8620;51.168;4.154;2023-06-22T15:15:58;20.80;99.90
17007;DHT22;8620;51.168;4.154;2023-06-22T15:18:33;21.00;99.90
17007;DHT22;8620;51.168;4.154;2023-06-22T15:21:22;21.00;99.90
17007;DHT22;8620;51.168;4.154;2023-06-22T15:24:02;21.00;99.90
17007;DHT22;8620;51.168;4.154;2023-06-22T15:26:54;21.10;99.90
17007;DHT22;8620;51.168;4.154;2023-06-22T15:29:43;21.00;99.90
17007;DHT22;8620;51.168;4.154;2023-06-22T15:32:35;20.80;99.90
17007;DHT22;8620;51.168;4.154;2023-06-22T15:35:00;20.80;99.90
17007;DHT22;8620;51.168;4.154;2023-06-22T15:37:50;20.80;99.90
17007;DHT22;8620;51.168;4.154;2023-06-22T15:40:17;20.80;99.90
17007;DHT22;8620;51.168;4.154;2023-06-22T15:43:12;20.70;99.90
17007;DHT22;8620;51.168;4.154;2023-06-22T15:46:02;20.90;99.90
17007;DHT22;8620;51.168;4.154;2023-06-22T15:48:31;21.20;99.90
17007;DHT22;8620;51.168;4.154;2023-06-22T15:54:06;21.40;99.90
17007;DHT22;8620;51.168;4.154;2023-06-22T15:59:42;21.70;99.90
17007;DHT22;8620;51.168;4.154;2023-06-22T16:02:32;21.80;99.90
17007;DHT22;8620;51.168;4.154;2023-06-22T16:05:06;22.00;99.90
17007;DHT22;8620;51.168;4.154;2023-06-22T16:07:56;22.00;99.90
17007;DHT22;8620;51.168;4.154;2023-06-22T16:10:27;22.20;99.90
17007;DHT22;8620;51.168;4.154;2023-06-22T16:13:09;22.20;99.90
17007;DHT22;8620;51.168;4.154;2023-06-22T16:15:47;22.30;99.90
17007;DHT22;8620;51.168;4.154;2023-06-22T16:18:33;22.30;99.90
17007;DHT22;8620;51.168;4.154;2023-06-22T16:21:22;22.40;99.90
17007;DHT22;8620;51.168;4.154;2023-06-22T16:24:08;22.60;99.90
17007;DHT22;8620;51.168;4.154;2023-06-22T16:27:01;22.30;99.90
17007;DHT22;8620;51.168;4.154;2023-06-22T16:29:47;22.20;99.90
17007;DHT22;8620;51.168;4.154;2023-06-22T16:32:36;22.10;99.90
17007;DHT22;8620;51.168;4.154;2023-06-22T16:35:19;22.20;99.90
17007;DHT22;8620;51.168;4.154;2023-06-22T16:38:02;22.30;99.90
17007;DHT22;8620;51.168;4.154;2023-06-22T16:41:00;22.40;99.90
17007;DHT22;8620;51.168;4.154;2023-06-22T16:43:41;22.50;99.90
17007;DHT22;8620;51.168;4.154;2023-06-22T16:46:33;22.40;99.90
17007;DHT22;8620;51.168;4.154;2023-06-22T16:49:22;22.50;99.90
17007;DHT22;8620;51.168;4.154;2023-06-22T16:52:11;22.30;99.90
17007;DHT22;8620;51.168;4.154;2023-06-22T16:55:00;22.30;99.90
17007;DHT22;8620;51.168;4.154;2023-06-22T16:57:58;22.50;99.90
17007;DHT22;8620;51.168;4.154;2023-06-22T17:00:50;22.50;99.90
17007;DHT22;8620;51.168;4.154;2023-06-22T17:03:44;22.20;99.90
17007;DHT22;8620;51.168;4.154;2023-06-22T17:06:32;22.20;99.90
17007;DHT22;8620;51.168;4.154;2023-06-22T17:09:19;22.50;99.90
17007;DHT22;8620;51.168;4.154;2023-06-22T17:11:52;22.40;99.90
17007;DHT22;8620;51.168;4.154;2023-06-22T17:14:32;22.30;99.90
17007;DHT22;8620;51.168;4.154;2023-06-22T17:17:21;22.30;99.90
17007;DHT22;8620;51.168;4.154;2023-06-22T17:20:15;22.40;99.90
17007;DHT22;8620;51.168;4.154;2023-06-22T17:22:50;22.70;99.90
17007;DHT22;8620;51.168;4.154;2023-06-22T17:25:42;22.80;99.90
17007;DHT22;8620;51.168;4.154;2023-06-22T17:28:48;22.80;99.90
17007;DHT22;8620;51.168;4.154;2023-06-22T17:31:18;22.80;99.90
17007;DHT22;8620;51.168;4.154;2023-06-22T17:34:15;22.90;99.90
17007;DHT22;8620;51.168;4.154;2023-06-22T17:36:48;23.00;99.90
17007;DHT22;8620;51.168;4.154;2023-06-22T17:39:30;22.90;99.90
17007;DHT22;8620;51.168;4.154;2023-06-22T17:42:22;23.10;99.90
17007;DHT22;8620;51.168;4.154;2023-06-22T17:45:17;23.20;99.90
17007;DHT22;8620;51.168;4.154;2023-06-22T17:48:10;23.20;99.90
17007;DHT22;8620;51.168;4.154;2023-06-22T17:50:43;23.40;99.90
17007;DHT22;8620;51.168;4.154;2023-06-22T17:56:31;23.50;99.90
17007;DHT22;8620;51.168;4.154;2023-06-22T17:59:23;23.50;99.90
17007;DHT22;8620;51.168;4.154;2023-06-22T18:02:09;23.60;99.90
17007;DHT22;8620;51.168;4.154;2023-06-22T18:07:53;23.70;99.90
17007;DHT22;8620;51.168;4.154;2023-06-22T18:11:00;23.70;99.90
17007;DHT22;8620;51.168;4.154;2023-06-22T18:14:08;23.40;99.90
17007;DHT22;8620;51.168;4.154;2023-06-22T18:16:56;23.20;99.90
17007;DHT22;8620;51.168;4.154;2023-06-22T18:19:51;23.30;99.90
17007;DHT22;8620;51.168;4.154;2023-06-22T18:22:37;23.30;99.90
17007;DHT22;8620;51.168;4.154;2023-06-22T18:25:44;23.20;99.90
17007;DHT22;8620;51.168;4.154;2023-06-22T18:28:15;23.30;99.90
17007;DHT22;8620;51.168;4.154;2023-06-22T18:31:06;23.30;99.90
17007;DHT22;8620;51.168;4.154;2023-06-22T18:34:01;23.20;99.90
17007;DHT22;8620;51.168;4.154;2023-06-22T18:40:16;23.40;99.90
17007;DHT22;8620;51.168;4.154;2023-06-22T18:43:19;23.40;99.90
17007;DHT22;8620;51.168;4.154;2023-06-22T18:49:23;23.40;99.90
17007;DHT22;8620;51.168;4.154;2023-06-22T19:03:31;23.30;99.90
17007;DHT22;8620;51.168;4.154;2023-06-22T19:06:54;23.20;99.90
17007;DHT22;8620;51.168;4.154;2023-06-22T19:09:27;23.00;99.90
17007;DHT22;8620;51.168;4.154;2023-06-22T19:12:22;23.00;99.90
17007;DHT22;8620;51.168;4.154;2023-06-22T19:15:03;23.10;99.90
17007;DHT22;8620;51.168;4.154;2023-06-22T19:17:58;23.10;99.90
17007;DHT22;8620;51.168;4.154;2023-06-22T19:20:36;23.30;99.90
17007;DHT22;8620;51.168;4.154;2023-06-22T19:26:21;23.10;99.90
17007;DHT22;8620;51.168;4.154;2023-06-22T19:28:53;22.90;99.90
17007;DHT22;8620;51.168;4.154;2023-06-22T19:31:42;22.90;99.90
17007;DHT22;8620;51.168;4.154;2023-06-22T19:34:08;23.10;99.90
17007;DHT22;8620;51.168;4.154;2023-06-22T19:36:41;23.00;99.90
17007;DHT22;8620;51.168;4.154;2023-06-22T19:39:16;22.80;99.90
17007;DHT22;8620;51.168;4.154;2023-06-22T19:41:45;22.70;99.90
17007;DHT22;8620;51.168;4.154;2023-06-22T19:44:20;22.60;99.90
17007;DHT22;8620;51.168;4.154;2023-06-22T19:46:46;22.70;99.90
17007;DHT22;8620;51.168;4.154;2023-06-22T19:50:00;22.60;99.90
17007;DHT22;8620;51.168;4.154;2023-06-22T19:53:02;22.60;99.90
17007;DHT22;8620;51.168;4.154;2023-06-22T19:56:06;22.40;99.90
17007;DHT22;8620;51.168;4.154;2023-06-22T19:58:32;22.40;99.90
17007;DHT22;8620;51.168;4.154;2023-06-22T20:01:45;22.30;99.90
17007;DHT22;8620;51.168;4.154;2023-06-22T20:04:13;22.40;99.90
17007;DHT22;8620;51.168;4.154;2023-06-22T20:07:07;22.10;99.90
17007;DHT22;8620;51.168;4.154;2023-06-22T20:09:33;21.90;99.90
17007;DHT22;8620;51.168;4.154;2023-06-22T20:12:22;21.90;99.90
17007;DHT22;8620;51.168;4.154;2023-06-22T20:18:34;21.90;99.90
17007;DHT22;8620;51.168;4.154;2023-06-22T20:21:05;21.80;99.90
17007;DHT22;8620;51.168;4.154;2023-06-22T20:24:01;21.80;99.90
17007;DHT22;8620;51.168;4.154;2023-06-22T20:26:47;21.80;99.90
17007;DHT22;8620;51.168;4.154;2023-06-22T20:29:38;21.70;99.90
17007;DHT22;8620;51.168;4.154;2023-06-22T20:32:12;21.50;99.90
17007;DHT22;8620;51.168;4.154;2023-06-22T20:37:39;21.40;99.90
17007;DHT22;8620;51.168;4.154;2023-06-22T20:40:11;21.40;99.90
17007;DHT22;8620;51.168;4.154;2023-06-22T20:43:13;21.40;99.90
17007;DHT22;8620;51.168;4.154;2023-06-22T20:45:44;21.30;99.90
17007;DHT22;8620;51.168;4.154;2023-06-22T20:48:13;21.20;99.90
17007;DHT22;8620;51.168;4.154;2023-06-22T20:50:51;21.20;99.90
17007;DHT22;8620;51.168;4.154;2023-06-22T20:53:46;21.00;99.90
17007;DHT22;8620;51.168;4.154;2023-06-22T20:56:12;21.10;99.90
